Terminal Aerodrome Forecast
Issued by NWS

Home | Current Version | Previous Version | Graphics & Text | Print | Product List | Glossary On
Versions: 1 2 3 4 5 6 7 8 9 10 11 12 13 14 15 16 17 18 19 20 21 22 23 24
000
FTUS43 KTOP 051100
TAFFOE
TAF
KFOE 051132Z 0512/0612 12007KT P6SM SCT060
     FM051600 17013G21KT P6SM FEW050 BKN250
     FM060100 14010KT P6SM SCT120
     FM060600 15013G22KT P6SM -SHRA VCTS OVC050CB=

USA.gov is the U.S. government's official web portal to all federal, state and local government web resources and services.